Time;durP1;ratioP1;P1;durP2;ratioP2;P2;SDS_P1;SDS_P2;PMS_P1;PMS_P2;Temp;Humidity;BMP_temperature;BMP_pressure;BME280_temperature;BME280_humidity;BME280_pressure;Samples;Min_cycle;Max_cycle;Signal;HPM_P1;HPM_P2
2021/04/18 00:00:49;;;;;;;24.20;15.73;;;;;;;4.78;79.82;99817.77;1732966;80;21163;-57
2021/04/18 00:03:17;;;;;;;29.63;17.40;;;;;;;4.84;80.15;99814.98;1730691;80;21353;-57
2021/04/18 00:05:44;;;;;;;25.93;15.00;;;;;;;4.90;80.39;99814.36;1730672;80;21626;-57
2021/04/18 00:08:11;;;;;;;20.93;14.43;;;;;;;4.97;80.55;99817.75;1726287;80;21754;-58
2021/04/18 00:10:42;;;;;;;23.60;14.77;;;;;;;5.05;80.55;99807.77;1735429;80;21253;-57
2021/04/18 00:13:11;;;;;;;19.53;13.80;;;;;;;5.11;80.67;99807.59;1731403;80;21171;-57
2021/04/18 00:15:42;;;;;;;31.53;17.20;;;;;;;5.18;80.80;99816.35;1731198;80;21223;-58
2021/04/18 00:18:10;;;;;;;31.47;19.90;;;;;;;5.25;80.91;99822.83;1730797;80;21247;-57
2021/04/18 00:20:39;;;;;;;29.37;17.90;;;;;;;5.28;80.78;99820.05;1727762;80;22284;-57
2021/04/18 00:23:06;;;;;;;33.87;18.87;;;;;;;5.32;80.89;99820.41;1731563;80;21215;-56
2021/04/18 00:25:34;;;;;;;29.63;18.93;;;;;;;5.35;80.74;99815.45;1736149;79;21171;-55
2021/04/18 00:28:02;;;;;;;32.50;19.60;;;;;;;5.37;80.88;99818.06;1733518;80;21174;-58
2021/04/18 00:30:29;;;;;;;23.70;17.57;;;;;;;5.39;81.16;99809.11;1723026;80;21231;-57
2021/04/18 00:33:00;;;;;;;21.63;14.63;;;;;;;5.45;81.36;99808.06;1722808;80;22738;-57
2021/04/18 00:35:28;;;;;;;19.60;13.37;;;;;;;5.52;81.47;99810.55;1660547;80;21202;-57
2021/04/18 00:37:56;;;;;;;18.37;13.20;;;;;;;5.57;81.60;99799.28;1721891;80;21186;-59
2021/04/18 00:40:24;;;;;;;18.30;12.03;;;;;;;5.63;81.69;99804.44;1719993;80;22368;-59
2021/04/18 00:42:52;;;;;;;18.70;13.50;;;;;;;5.69;81.76;99806.09;1707223;80;21129;-58
2021/04/18 00:45:20;;;;;;;18.13;13.17;;;;;;;5.73;81.74;99794.84;1688778;82;21601;-59
2021/04/18 00:47:50;;;;;;;18.97;14.70;;;;;;;5.76;81.85;99795.64;1702430;82;21917;-57
2021/04/18 00:50:29;;;;;;;19.37;14.43;;;;;;;5.78;81.92;99788.47;1703583;82;21119;-57
2021/04/18 00:53:08;;;;;;;25.93;15.43;;;;;;;5.86;81.93;99791.80;1811472;76;22800;-60
2021/04/18 00:55:39;;;;;;;17.47;12.93;;;;;;;5.81;81.88;99787.03;1782318;77;21198;-58
2021/04/18 00:58:07;;;;;;;15.73;12.50;;;;;;;5.83;81.84;99787.87;1785443;78;22489;-60
2021/04/18 01:00:35;;;;;;;12.37;10.60;;;;;;;5.86;81.84;99789.13;1787407;77;21192;-58
2021/04/18 01:03:05;;;;;;;11.80;10.10;;;;;;;5.90;81.87;99790.81;1781683;77;21183;-60
2021/04/18 01:05:35;;;;;;;11.07;9.67;;;;;;;5.93;81.89;99785.84;1782223;77;21169;-59
2021/04/18 01:08:09;;;;;;;11.93;10.10;;;;;;;5.99;81.92;99785.66;1784938;77;21453;-57
2021/04/18 01:10:33;;;;;;;11.90;9.80;;;;;;;6.02;81.86;99791.80;1783572;77;21356;-58
2021/04/18 01:13:03;;;;;;;15.43;10.83;;;;;;;6.06;81.76;99788.56;1764071;78;21029;-58
2021/04/18 01:15:33;;;;;;;13.80;10.80;;;;;;;6.07;81.73;99784.52;1785025;77;21203;-60
2021/04/18 01:18:01;;;;;;;13.13;10.77;;;;;;;6.08;81.68;99780.92;1787015;77;22125;-58
2021/04/18 01:20:29;;;;;;;14.33;12.17;;;;;;;6.08;81.52;99775.58;1749570;79;21155;-57
2021/04/18 01:23:06;;;;;;;13.73;11.83;;;;;;;6.12;81.47;99772.37;1871565;75;21999;-60
2021/04/18 01:25:46;;;;;;;13.87;10.73;;;;;;;6.13;81.42;99774.55;1868435;75;27478;-57
2021/04/18 01:28:18;;;;;;;11.73;9.73;;;;;;;6.08;81.37;99771.58;1836417;76;21168;-60
2021/04/18 01:30:46;;;;;;;12.40;9.80;;;;;;;6.10;81.32;99767.52;1836670;76;21661;-58
2021/04/18 01:33:14;;;;;;;8.87;7.97;;;;;;;6.11;81.26;99771.95;1836429;76;21182;-58
2021/04/18 01:35:46;;;;;;;12.13;10.83;;;;;;;6.14;81.28;99762.48;1839328;76;22221;-60
2021/04/18 01:38:15;;;;;;;11.10;9.87;;;;;;;6.18;81.28;99768.62;1841193;76;21158;-59
2021/04/18 01:40:43;;;;;;;10.80;9.70;;;;;;;6.19;81.20;99764.58;1803607;77;21599;-60
2021/04/18 01:43:17;;;;;;;12.10;10.77;;;;;;;6.20;81.19;99758.31;1781121;78;21369;-58
2021/04/18 01:45:47;;;;;;;12.67;11.40;;;;;;;6.20;81.13;99748.96;1800473;78;21078;-56
2021/04/18 01:48:15;;;;;;;14.20;12.70;;;;;;;6.20;81.13;99749.42;1799962;78;21175;-56
2021/04/18 01:50:45;;;;;;;17.60;11.70;;;;;;;6.19;81.10;99744.99;1782057;78;22674;-57
2021/04/18 01:53:13;;;;;;;11.37;10.20;;;;;;;6.16;81.09;99745.07;1766832;79;21222;-56
2021/04/18 01:55:41;;;;;;;12.87;10.97;;;;;;;6.17;81.09;99748.16;1777510;78;21621;-57
2021/04/18 01:58:08;;;;;;;11.60;10.27;;;;;;;6.17;81.24;99745.49;1764564;79;21179;-58
2021/04/18 02:01:00;;;;;;;14.27;11.13;;;;;;;6.24;81.41;99745.25;1861882;74;23572;-60
2021/04/18 02:03:27;;;;;;;14.77;12.53;;;;;;;6.21;81.46;99744.49;1781929;78;21172;-60
2021/04/18 02:05:56;;;;;;;16.17;11.90;;;;;;;6.21;81.57;99741.33;1760839;78;22119;-60
2021/04/18 02:08:26;;;;;;;14.50;12.17;;;;;;;6.24;81.64;99743.04;1769772;78;21111;-59
2021/04/18 02:10:54;;;;;;;12.43;10.93;;;;;;;6.26;81.56;99744.75;1779992;78;21528;-60
2021/04/18 02:13:23;;;;;;;14.27;11.47;;;;;;;6.24;81.56;99743.92;1802219;77;21079;-61
2021/04/18 02:15:58;;;;;;;12.68;9.53;;;;;;;6.23;81.66;99743.50;1793389;77;21179;-60
2021/04/18 02:18:26;;;;;;;11.13;9.53;;;;;;;6.23;81.70;99740.83;1796519;77;21050;-59
2021/04/18 02:20:54;;;;;;;12.37;9.83;;;;;;;6.23;81.72;99733.27;1797443;77;21073;-59
2021/04/18 02:23:21;;;;;;;12.93;11.53;;;;;;;6.22;81.81;99732.84;1799141;77;21953;-59
2021/04/18 02:25:49;;;;;;;12.40;10.70;;;;;;;6.24;81.93;99729.22;1797531;77;21162;-59
2021/04/18 02:28:16;;;;;;;13.13;11.73;;;;;;;6.27;81.90;99726.45;1802810;77;21606;-60
2021/04/18 02:30:44;;;;;;;12.07;10.87;;;;;;;6.27;81.87;99718.90;1775038;78;21718;-59
2021/04/18 02:33:12;;;;;;;12.93;11.10;;;;;;;6.27;81.89;99718.90;1766126;77;21162;-59
2021/04/18 02:35:40;;;;;;;10.67;9.57;;;;;;;6.26;81.84;99720.70;1774231;77;21174;-59
2021/04/18 02:38:08;;;;;;;10.73;7.67;;;;;;;6.25;81.80;99716.73;1797640;77;21178;-59
2021/04/18 02:40:36;;;;;;;10.30;8.43;;;;;;;6.25;81.85;99721.62;1799136;77;21130;-59
2021/04/18 02:43:03;;;;;;;12.37;10.67;;;;;;;6.25;81.88;99718.94;1770044;79;21495;-60
2021/04/18 02:45:31;;;;;;;9.50;7.53;;;;;;;6.25;81.88;99714.05;1755212;80;21571;-59
2021/04/18 02:47:59;;;;;;;13.30;10.73;;;;;;;6.24;81.89;99707.83;1755229;80;21203;-59
2021/04/18 02:50:27;;;;;;;15.13;11.30;;;;;;;6.23;81.94;99710.09;1758440;80;21172;-59
2021/04/18 02:52:54;;;;;;;12.87;10.47;;;;;;;6.24;81.97;99701.61;1760445;80;21191;-59
2021/04/18 02:55:22;;;;;;;11.40;9.07;;;;;;;6.24;81.95;99700.27;1766349;79;22105;-59
2021/04/18 02:57:51;;;;;;;12.93;10.90;;;;;;;6.24;81.99;99699.81;1764887;79;21548;-59
2021/04/18 03:00:18;;;;;;;12.47;9.87;;;;;;;6.26;81.99;99698.44;1750756;80;21120;-59
2021/04/18 03:02:46;;;;;;;11.07;9.33;;;;;;;6.28;82.06;99699.27;1748225;78;21535;-58
2021/04/18 03:05:15;;;;;;;11.83;9.80;;;;;;;6.29;82.05;99699.23;1749285;80;21115;-60
2021/04/18 03:07:44;;;;;;;12.17;10.23;;;;;;;6.31;82.04;99692.47;1744302;81;21829;-59
2021/04/18 03:10:14;;;;;;;13.17;10.10;;;;;;;6.34;82.05;99697.73;1745777;81;21191;-59
2021/04/18 03:12:42;;;;;;;10.47;9.40;;;;;;;6.34;81.95;99703.95;1742524;81;21597;-59
2021/04/18 03:15:11;;;;;;;13.03;10.57;;;;;;;6.32;81.89;99695.55;1725749;81;21705;-60
2021/04/18 03:17:41;;;;;;;9.53;8.30;;;;;;;6.32;81.89;99699.56;1746778;80;21188;-59
2021/04/18 03:20:11;;;;;;;9.70;7.67;;;;;;;6.33;81.86;99693.30;1745958;81;21757;-59
2021/04/18 03:22:38;;;;;;;9.00;7.60;;;;;;;6.33;81.84;99693.30;1745817;81;21128;-59
2021/04/18 03:25:07;;;;;;;8.17;7.10;;;;;;;6.31;81.82;99685.78;1720255;80;21126;-59
2021/04/18 03:27:35;;;;;;;8.83;7.93;;;;;;;6.32;81.83;99683.53;1745037;81;21132;-59
2021/04/18 03:30:05;;;;;;;8.07;7.27;;;;;;;6.32;81.81;99685.73;1742792;81;21124;-59
2021/04/18 03:32:34;;;;;;;9.70;8.27;;;;;;;6.35;81.81;99698.14;1743725;81;21563;-59
2021/04/18 03:35:04;;;;;;;10.53;9.43;;;;;;;6.35;81.79;99698.14;1748757;80;21142;-59
2021/04/18 03:37:32;;;;;;;11.27;9.17;;;;;;;6.36;81.76;99695.42;1765955;78;21157;-58
2021/04/18 03:39:59;;;;;;;8.30;7.50;;;;;;;6.37;81.76;99697.18;1769243;78;21083;-59
2021/04/18 03:42:28;;;;;;;7.43;6.50;;;;;;;6.38;81.62;99695.39;1745060;81;20986;-60
2021/04/18 03:44:57;;;;;;;6.93;6.23;;;;;;;6.36;81.51;99690.54;1738037;80;21700;-60
2021/04/18 03:47:24;;;;;;;7.03;6.03;;;;;;;6.33;81.55;99691.50;1744745;81;21140;-59
2021/04/18 03:49:56;;;;;;;7.40;6.63;;;;;;;6.32;81.54;99697.77;1743920;81;21489;-59
2021/04/18 03:52:26;;;;;;;7.30;6.60;;;;;;;6.30;81.58;99698.27;1749081;80;21115;-58
2021/04/18 03:54:54;;;;;;;7.57;6.77;;;;;;;6.30;81.56;99690.72;1757711;79;21091;-59
2021/04/18 03:57:22;;;;;;;6.87;6.27;;;;;;;6.28;81.61;99693.47;1754641;79;21193;-59
2021/04/18 03:59:50;;;;;;;7.30;6.60;;;;;;;6.27;81.59;99690.83;1763465;78;21135;-58
2021/04/18 04:02:19;;;;;;;5.50;4.87;;;;;;;6.28;81.51;99689.91;1773411;78;21563;-59
2021/04/18 04:04:47;;;;;;;4.97;4.57;;;;;;;6.29;81.53;99688.99;1761797;80;21478;-59
2021/04/18 04:07:17;;;;;;;6.47;5.70;;;;;;;6.27;81.56;99686.36;1766767;79;21121;-59
2021/04/18 04:09:44;;;;;;;6.07;5.47;;;;;;;6.27;81.54;99687.70;1759785;80;21446;-59
2021/04/18 04:12:13;;;;;;;7.07;6.07;;;;;;;6.27;81.61;99693.50;1770751;79;21135;-58
2021/04/18 04:14:43;;;;;;;8.07;6.13;;;;;;;6.27;81.68;99699.73;1772060;78;21134;-59
2021/04/18 04:17:10;;;;;;;6.17;5.57;;;;;;;6.29;81.65;99701.90;1784640;78;21775;-60
2021/04/18 04:20:37;;;;;;;7.20;6.50;;;;;;;6.32;81.66;99708.47;1776909;77;22492;-59
2021/04/18 04:23:15;;;;;;;6.00;5.47;;;;;;;6.28;81.74;99706.83;1627383;86;21270;-60
2021/04/18 04:25:43;;;;;;;5.83;5.33;;;;;;;6.33;81.75;99699.98;1759778;78;21393;-60
2021/04/18 04:28:12;;;;;;;5.93;5.43;;;;;;;6.33;81.72;99698.19;1780129;78;21205;-60
2021/04/18 04:30:39;;;;;;;7.03;6.33;;;;;;;6.36;81.80;99699.90;1773618;78;21189;-62
2021/04/18 04:33:06;;;;;;;6.47;5.87;;;;;;;6.38;81.78;99696.23;1778399;78;21552;-60
2021/04/18 04:35:34;;;;;;;8.20;7.30;;;;;;;6.41;81.75;99699.28;1780657;78;21191;-60
2021/04/18 04:38:01;;;;;;;7.47;6.77;;;;;;;6.41;81.75;99689.92;1780230;78;21219;-59
2021/04/18 04:40:28;;;;;;;8.47;7.47;;;;;;;6.43;81.76;99691.62;1779479;78;21405;-62
2021/04/18 04:42:56;;;;;;;7.40;6.50;;;;;;;6.46;81.76;99702.20;1779039;78;21193;-59
2021/04/18 04:45:23;;;;;;;6.37;5.80;;;;;;;6.51;81.70;99702.07;1783206;78;21599;-59
2021/04/18 04:47:50;;;;;;;5.67;5.07;;;;;;;6.54;81.67;99694.42;1781196;78;21202;-60
2021/04/18 04:50:18;;;;;;;6.17;5.57;;;;;;;6.56;81.71;99686.73;1779230;78;22266;-60
2021/04/18 04:52:45;;;;;;;6.40;5.57;;;;;;;6.60;81.74;99684.84;1777871;78;21176;-60
2021/04/18 04:55:13;;;;;;;10.93;8.43;;;;;;;6.64;81.66;99688.69;1779825;78;21633;-60
2021/04/18 04:57:41;;;;;;;9.50;8.03;;;;;;;6.67;81.64;99684.59;1778929;78;21130;-60
2021/04/18 05:00:09;;;;;;;7.70;7.00;;;;;;;6.67;81.61;99683.25;1779418;78;21105;-59
2021/04/18 05:02:36;;;;;;;7.40;6.63;;;;;;;6.69;81.53;99685.42;1781182;78;22256;-60
2021/04/18 05:05:05;;;;;;;8.20;5.70;;;;;;;6.71;81.50;99684.04;1776465;78;21237;-60
2021/04/18 05:07:32;;;;;;;6.20;5.60;;;;;;;6.73;81.51;99680.83;1777285;78;21186;-59
2021/04/18 05:10:01;;;;;;;7.90;6.57;;;;;;;6.76;81.53;99678.94;1779123;78;21234;-59
2021/04/18 05:12:28;;;;;;;7.23;5.63;;;;;;;6.80;81.58;99676.55;1779229;78;21105;-60
2021/04/18 05:14:56;;;;;;;7.53;6.80;;;;;;;6.85;81.60;99672.39;1782053;78;21210;-60
2021/04/18 05:17:23;;;;;;;6.83;6.30;;;;;;;6.89;81.47;99671.84;1782626;78;21147;-61
2021/04/18 05:19:52;;;;;;;7.90;6.63;;;;;;;6.92;81.42;99663.69;1776067;79;21186;-60
2021/04/18 05:22:19;;;;;;;6.07;5.47;;;;;;;6.94;81.34;99667.19;1775306;80;21138;-60
2021/04/18 05:24:46;;;;;;;6.63;5.77;;;;;;;6.96;81.20;99663.55;1772326;80;21429;-60
2021/04/18 05:27:13;;;;;;;5.50;4.87;;;;;;;7.00;81.18;99658.94;1775997;79;21466;-60
2021/04/18 05:29:41;;;;;;;5.47;4.97;;;;;;;7.06;81.17;99654.23;1772848;79;21925;-60
2021/04/18 05:32:09;;;;;;;7.10;6.30;;;;;;;7.16;81.25;99649.43;1770600;79;21071;-59
2021/04/18 05:34:36;;;;;;;8.27;7.47;;;;;;;7.25;81.33;99644.20;1734975;80;21689;-59
2021/04/18 05:37:05;;;;;;;7.80;7.10;;;;;;;7.33;81.08;99639.45;1770380;79;21187;-60
2021/04/18 05:39:32;;;;;;;7.77;7.10;;;;;;;7.41;80.95;99640.91;1770076;79;21742;-60
2021/04/18 05:42:00;;;;;;;10.37;8.50;;;;;;;7.50;80.88;99638.35;1770490;79;21183;-59
2021/04/18 05:44:27;;;;;;;7.43;6.73;;;;;;;7.61;80.88;99637.49;1770529;79;21864;-61
2021/04/18 05:46:54;;;;;;;8.40;7.60;;;;;;;7.70;80.81;99638.48;1768326;79;21242;-59
2021/04/18 05:49:22;;;;;;;8.40;7.70;;;;;;;7.79;80.54;99637.25;1772656;79;21159;-61
2021/04/18 05:51:49;;;;;;;7.13;6.50;;;;;;;7.82;80.26;99643.38;1773467;79;22086;-58
2021/04/18 05:54:16;;;;;;;6.43;5.70;;;;;;;7.86;80.05;99632.94;1768755;79;21163;-58
2021/04/18 05:56:44;;;;;;;7.80;7.00;;;;;;;7.92;79.86;99634.48;1770130;79;21181;-58
2021/04/18 05:59:11;;;;;;;6.53;5.73;;;;;;;7.94;79.54;99631.30;1771330;79;21981;-59
2021/04/18 06:01:39;;;;;;;5.87;5.20;;;;;;;7.95;79.24;99631.70;1769753;79;21203;-59
2021/04/18 06:04:07;;;;;;;5.07;4.67;;;;;;;7.98;79.28;99637.83;1770498;80;21718;-59
2021/04/18 06:06:35;;;;;;;5.63;5.13;;;;;;;8.01;79.09;99639.49;1768668;79;21203;-58
2021/04/18 06:09:03;;;;;;;5.37;4.93;;;;;;;8.04;78.91;99635.36;1774202;79;21193;-59
2021/04/18 06:11:30;;;;;;;6.17;5.57;;;;;;;8.09;78.68;99644.55;1776289;79;21192;-59
2021/04/18 06:13:57;;;;;;;5.47;5.00;;;;;;;8.10;78.69;99643.61;1774451;79;21159;-59
2021/04/18 06:16:27;;;;;;;7.67;6.97;;;;;;;8.12;78.46;99649.80;1772327;80;21600;-58
2021/04/18 06:18:55;;;;;;;7.33;6.63;;;;;;;8.11;78.24;99646.70;1773040;80;21192;-58
2021/04/18 06:21:22;;;;;;;8.60;6.57;;;;;;;8.10;78.24;99643.15;1759017;79;21229;-58
2021/04/18 06:23:50;;;;;;;14.17;9.33;;;;;;;8.13;78.13;99639.48;1741060;79;21154;-58
2021/04/18 06:26:17;;;;;;;8.83;6.13;;;;;;;8.15;78.11;99634.94;1758443;79;22499;-59
2021/04/18 06:28:44;;;;;;;11.90;7.47;;;;;;;8.19;78.07;99644.13;1761099;79;23599;-57
2021/04/18 06:31:12;;;;;;;8.93;6.20;;;;;;;8.24;78.12;99637.25;1758843;79;21206;-59
2021/04/18 06:33:39;;;;;;;13.87;8.90;;;;;;;8.27;78.01;99636.64;1760226;79;21439;-58
2021/04/18 06:36:09;;;;;;;9.27;6.83;;;;;;;8.31;77.94;99638.78;1762017;79;21519;-59
2021/04/18 06:38:38;;;;;;;12.83;8.77;;;;;;;8.34;77.79;99624.75;1765932;79;21613;-59
2021/04/18 06:41:07;;;;;;;8.13;6.33;;;;;;;8.39;77.72;99631.76;1761055;79;21372;-59
2021/04/18 06:43:34;;;;;;;5.83;5.30;;;;;;;8.44;77.62;99626.59;1762856;79;20979;-58
2021/04/18 06:46:02;;;;;;;5.63;5.00;;;;;;;8.50;77.46;99627.70;1765016;79;21513;-58
2021/04/18 06:48:31;;;;;;;6.00;5.17;;;;;;;8.57;77.26;99621.61;1762963;79;21153;-59
2021/04/18 06:50:59;;;;;;;4.62;4.15;;;;;;;8.65;77.37;99623.03;1760584;79;21476;-57
2021/04/18 06:53:26;;;;;;;5.80;5.20;;;;;;;8.73;77.21;99611.50;1763189;79;22245;-59
2021/04/18 06:55:53;;;;;;;8.20;5.67;;;;;;;8.82;76.97;99609.35;1760689;79;21169;-58
2021/04/18 06:58:21;;;;;;;4.80;3.33;;;;;;;8.91;76.86;99609.83;1763691;79;21551;-59
2021/04/18 07:00:49;;;;;;;5.08;3.25;;;;;;;9.02;77.00;99603.50;1761642;79;21458;-58
2021/04/18 07:03:21;;;;;;;5.00;2.87;;;;;;;9.16;76.57;99599.34;1762048;79;22286;-58
2021/04/18 07:05:47;;;;;;;3.85;3.22;;;;;;;9.25;76.10;99603.83;1761848;79;21621;-58
2021/04/18 07:08:30;;;;;;;3.85;3.55;;;;;;;9.29;75.75;99605.42;1763408;79;21645;-58
2021/04/18 07:11:12;;;;;;;4.20;3.08;;;;;;;9.35;75.37;99611.02;1762060;79;21134;-59
2021/04/18 07:13:42;;;;;;;3.08;2.40;;;;;;;9.38;75.35;99608.16;1764872;79;21453;-59
2021/04/18 07:16:26;;;;;;;2.85;2.62;;;;;;;9.41;75.01;99603.53;1762877;79;21142;-58
2021/04/18 07:18:55;;;;;;;3.25;2.20;;;;;;;9.42;74.42;99603.06;1759751;79;21111;-59
2021/04/18 07:21:23;;;;;;;2.10;1.90;;;;;;;9.42;74.19;99601.25;1748662;79;21126;-58
2021/04/18 07:23:50;;;;;;;2.25;2.02;;;;;;;9.42;73.79;99598.56;1746960;80;21190;-58
2021/04/18 07:26:27;;;;;;;2.77;2.58;;;;;;;9.43;73.40;99588.70;1723717;80;21245;-58
2021/04/18 07:29:17;;;;;;;2.70;2.37;;;;;;;9.42;73.24;99595.00;1753410;80;21627;-59
2021/04/18 07:31:46;;;;;;;2.72;2.52;;;;;;;9.42;73.20;99586.95;1747218;80;21141;-59
2021/04/18 07:34:18;;;;;;;1.90;1.80;;;;;;;9.42;73.15;99587.82;1745854;80;21285;-58
2021/04/18 07:36:48;;;;;;;2.70;2.50;;;;;;;9.42;73.03;99590.50;1740762;80;21516;-59
2021/04/18 07:39:16;;;;;;;1.98;1.87;;;;;;;9.44;73.16;99590.44;1745013;80;21186;-59
2021/04/18 07:41:48;;;;;;;2.33;1.75;;;;;;;9.48;73.16;99588.87;1746090;80;21138;-58
2021/04/18 07:44:17;;;;;;;2.02;1.90;;;;;;;9.50;72.86;99591.49;1747915;80;21935;-59
2021/04/18 07:46:50;;;;;;;2.77;2.20;;;;;;;9.50;72.84;99592.84;1750513;80;21157;-58
2021/04/18 07:49:20;;;;;;;3.50;2.70;;;;;;;9.51;72.86;99589.21;1743855;80;21194;-58
2021/04/18 07:51:48;;;;;;;3.60;3.20;;;;;;;9.52;72.91;99590.08;1743413;80;21853;-59
2021/04/18 07:54:17;;;;;;;3.80;2.45;;;;;;;9.51;72.84;99590.55;1744230;80;21428;-57
2021/04/18 07:56:46;;;;;;;3.40;3.12;;;;;;;9.47;72.79;99590.28;1746628;80;21254;-59
2021/04/18 07:59:17;;;;;;;3.22;2.67;;;;;;;9.42;72.58;99582.45;1709338;82;21246;-59
2021/04/18 08:01:44;;;;;;;4.25;3.92;;;;;;;9.37;72.65;99587.61;1692923;82;22175;-59
2021/04/18 08:04:16;;;;;;;4.05;3.75;;;;;;;9.34;72.78;99586.43;1694636;82;21198;-59
2021/04/18 08:06:44;;;;;;;3.58;3.35;;;;;;;9.34;72.82;99586.43;1670328;82;21181;-59
2021/04/18 08:09:21;;;;;;;3.60;3.35;;;;;;;9.35;72.90;99582.33;1678937;83;21245;-58
2021/04/18 08:12:13;;;;;;;3.12;2.85;;;;;;;9.33;72.97;99582.00;1688032;83;21468;-59
2021/04/18 08:14:45;;;;;;;3.87;3.45;;;;;;;9.32;72.98;99585.62;1687617;83;21201;-59
2021/04/18 08:17:17;;;;;;;3.70;3.12;;;;;;;9.28;72.98;99587.56;1705611;82;21202;-59
2021/04/18 08:19:59;;;;;;;4.20;3.00;;;;;;;9.24;73.05;99587.78;1707267;81;21059;-59
2021/04/18 08:22:54;;;;;;;3.83;3.55;;;;;;;9.23;73.06;99599.00;1723820;81;21946;-59
2021/04/18 08:25:30;;;;;;;3.50;3.20;;;;;;;9.27;73.27;99592.52;1862558;74;22661;-59
2021/04/18 08:28:04;;;;;;;5.65;4.97;;;;;;;9.23;73.31;99595.44;1775386;78;21210;-58
2021/04/18 08:30:59;;;;;;;4.10;3.60;;;;;;;9.20;73.26;99596.91;1779395;78;21502;-58
2021/04/18 08:33:42;;;;;;;;;;;;;;;9.17;73.33;99586.32;1798479;77;21186;-58
2021/04/18 08:36:19;;;;;;;6.83;6.20;;;;;;;9.11;73.31;99587.45;1793015;77;20509;-57
2021/04/18 08:38:51;;;;;;;6.40;4.53;;;;;;;9.03;73.49;99589.14;1794275;77;21187;-58
2021/04/18 08:41:18;;;;;;;3.95;3.60;;;;;;;9.02;73.71;99585.17;1770130;78;21171;-59
2021/04/18 08:43:47;;;;;;;4.20;3.80;;;;;;;9.03;73.91;99578.39;1775949;78;21505;-58
2021/04/18 08:46:21;;;;;;;5.92;4.40;;;;;;;9.02;73.86;99580.67;1750455;79;21033;-58
2021/04/18 08:48:48;;;;;;;4.17;3.40;;;;;;;9.03;74.00;99579.73;1776264;78;22225;-58
2021/04/18 08:51:18;;;;;;;3.70;3.45;;;;;;;9.06;74.09;99581.42;1770122;78;21788;-58
2021/04/18 08:53:57;;;;;;;4.17;3.83;;;;;;;9.08;74.12;99577.74;1722924;79;21189;-59
2021/04/18 08:56:52;;;;;;;4.05;3.75;;;;;;;9.11;74.07;99585.64;1776546;78;22345;-58
2021/04/18 08:59:19;;;;;;;5.33;4.92;;;;;;;9.11;74.03;99580.73;1774275;79;21592;-58
2021/04/18 09:02:05;;;;;;;5.22;4.58;;;;;;;9.11;74.08;99582.08;1780455;78;21187;-58
2021/04/18 09:04:42;;;;;;;4.47;3.75;;;;;;;9.11;74.13;99581.61;1776499;78;21533;-58
2021/04/18 09:07:12;;;;;;;;;;;;;;;9.15;74.09;99590.41;1777712;79;21196;-58
2021/04/18 09:09:39;;;;;;;2.67;2.15;;;;;;;9.18;74.14;99586.73;1774976;79;20650;-59
2021/04/18 09:12:09;;;;;;;3.72;3.42;;;;;;;9.19;74.09;99579.05;1783386;78;21172;-58
2021/04/18 09:14:44;;;;;;;5.08;3.95;;;;;;;9.22;74.05;99578.91;1778493;78;21462;-59
2021/04/18 09:17:26;;;;;;;3.83;3.53;;;;;;;9.29;73.96;99580.38;1864263;75;24144;-58
2021/04/18 09:20:01;;;;;;;3.65;3.35;;;;;;;9.26;73.87;99588.59;1841948;76;21005;-58
2021/04/18 09:22:33;;;;;;;3.95;3.65;;;;;;;9.24;73.87;99579.26;1836669;76;22261;-58
2021/04/18 09:27:51;;;;;;;2.77;2.57;;;;;;;9.24;73.85;99574.36;1823173;76;23453;-58
2021/04/18 09:30:24;;;;;;;3.37;3.08;;;;;;;9.20;73.88;99591.53;1793067;77;21040;-59
2021/04/18 09:32:54;;;;;;;3.25;2.90;;;;;;;9.20;74.06;99584.34;1793296;77;22590;-58
2021/04/18 09:35:23;;;;;;;3.08;2.87;;;;;;;9.22;74.11;99570.39;1798345;77;21353;-57
2021/04/18 09:37:54;;;;;;;3.12;2.87;;;;;;;9.25;74.15;99571.61;1796579;77;20956;-57
2021/04/18 09:40:24;;;;;;;4.78;4.10;;;;;;;9.26;74.15;99576.51;1798831;77;20952;-58
2021/04/18 09:42:53;;;;;;;4.65;3.92;;;;;;;9.28;74.05;99581.31;1772307;77;21098;-58
2021/04/18 09:45:30;;;;;;;3.33;3.12;;;;;;;9.29;74.00;99580.38;1804897;77;21423;-58
2021/04/18 09:48:10;;;;;;;3.60;3.33;;;;;;;9.31;73.89;99583.88;1798162;77;20984;-58
2021/04/18 09:50:38;;;;;;;3.72;2.85;;;;;;;9.33;73.98;99580.66;1745820;80;21412;-56
2021/04/18 09:53:25;;;;;;;2.83;2.62;;;;;;;9.38;73.96;99579.95;1758080;79;21113;-58
2021/04/18 09:56:01;;;;;;;7.35;3.80;;;;;;;9.43;73.87;99580.64;1801160;77;21099;-57
2021/04/18 09:58:42;;;;;;;;;;;;;;;9.45;73.90;99572.88;1804375;77;22267;-58
2021/04/18 10:01:28;;;;;;;2.12;1.92;;;;;;;9.50;73.78;99575.38;1797015;77;20162;-58
2021/04/18 10:03:56;;;;;;;4.17;3.87;;;;;;;9.51;73.73;99583.84;1805617;77;21209;-58
2021/04/18 10:06:24;;;;;;;4.72;4.33;;;;;;;9.53;73.62;99581.92;1794398;77;21910;-58
2021/04/18 10:08:57;;;;;;;3.83;3.50;;;;;;;9.54;73.60;99589.52;1801142;77;22113;-57
2021/04/18 10:11:24;;;;;;;4.30;3.33;;;;;;;9.55;73.55;99585.42;1806625;77;21195;-58
2021/04/18 10:13:57;;;;;;;3.35;2.52;;;;;;;9.59;73.52;99590.19;1791327;77;21099;-58
2021/04/18 10:16:40;;;;;;;2.55;2.37;;;;;;;9.60;73.54;99590.13;1792027;77;21091;-58
2021/04/18 10:19:22;;;;;;;3.77;3.42;;;;;;;9.66;73.56;99601.05;1793410;77;21138;-58
2021/04/18 10:22:10;;;;;;;3.42;3.12;;;;;;;9.71;73.62;99603.03;1791027;77;21091;-59
2021/04/18 10:24:45;;;;;;;4.55;3.98;;;;;;;9.76;73.53;99603.72;1791239;77;21365;-58
2021/04/18 10:27:14;;;;;;;4.78;4.37;;;;;;;9.79;73.35;99603.55;1792349;77;21123;-57
2021/04/18 10:29:43;;;;;;;7.55;4.47;;;;;;;9.80;73.16;99606.17;1790637;77;21174;-59
2021/04/18 10:32:12;;;;;;;4.55;4.15;;;;;;;9.81;73.11;99609.26;1790286;77;21222;-58
2021/04/18 10:34:40;;;;;;;3.22;2.75;;;;;;;9.80;73.01;99610.67;1796839;77;21197;-58
2021/04/18 10:37:07;;;;;;;3.30;3.10;;;;;;;9.81;72.94;99608.39;1793124;77;22173;-58
2021/04/18 10:39:34;;;;;;;5.00;3.37;;;;;;;9.82;72.88;99616.38;1795526;77;21183;-58
2021/04/18 10:42:02;;;;;;;3.60;2.62;;;;;;;9.84;72.81;99615.84;1790865;77;21198;-58
2021/04/18 10:44:30;;;;;;;2.72;1.85;;;;;;;9.87;72.84;99620.19;1794014;77;21206;-58
2021/04/18 10:46:59;;;;;;;7.97;4.17;;;;;;;9.89;72.78;99622.34;1792901;77;21780;-58
2021/04/18 10:49:27;;;;;;;3.83;3.27;;;;;;;9.90;72.78;99621.39;1791089;77;21150;-58
2021/04/18 10:51:56;;;;;;;12.43;9.48;;;;;;;9.91;72.75;99620.92;1789822;77;21792;-59
2021/04/18 10:54:23;;;;;;;4.05;3.75;;;;;;;9.93;72.75;99623.08;1787372;77;21203;-59
2021/04/18 10:56:51;;;;;;;3.50;2.92;;;;;;;9.93;72.71;99617.70;1790025;77;21178;-59
2021/04/18 10:59:20;;;;;;;3.92;3.62;;;;;;;9.92;72.72;99618.64;1791011;77;21901;-59
2021/04/18 11:01:48;;;;;;;3.35;3.05;;;;;;;9.86;72.74;99618.00;1788386;77;22032;-60
2021/04/18 11:04:16;;;;;;;3.00;2.80;;;;;;;9.83;72.88;99616.79;1790824;77;21170;-58
2021/04/18 11:06:45;;;;;;;4.45;3.33;;;;;;;9.81;72.95;99621.36;1794780;77;21558;-59
2021/04/18 11:09:13;;;;;;;3.42;3.22;;;;;;;9.79;73.12;99622.36;1789918;77;21226;-59
2021/04/18 11:11:40;;;;;;;4.37;4.08;;;;;;;9.80;73.25;99622.30;1792623;77;21688;-58
2021/04/18 11:14:08;;;;;;;4.30;3.95;;;;;;;9.80;73.27;99616.05;1737660;80;21489;-58
2021/04/18 11:16:35;;;;;;;8.08;6.30;;;;;;;9.80;73.36;99619.61;1737805;79;21238;-59
2021/04/18 11:19:03;;;;;;;9.58;8.23;;;;;;;9.80;73.37;99619.61;1739950;79;21160;-59
2021/04/18 11:21:31;;;;;;;5.60;5.10;;;;;;;9.81;73.42;99620.48;1796702;77;21087;-60
2021/04/18 11:24:00;;;;;;;5.10;4.60;;;;;;;9.81;73.41;99620.02;1791428;77;20965;-59
2021/04/18 11:26:27;;;;;;;3.90;2.90;;;;;;;9.80;73.50;99624.98;1791658;77;22566;-60
2021/04/18 11:28:56;;;;;;;4.03;3.67;;;;;;;9.80;73.53;99624.11;1780067;77;21234;-59
2021/04/18 11:31:25;;;;;;;4.95;4.47;;;;;;;9.80;73.63;99624.98;1786316;77;21167;-58
2021/04/18 11:33:52;;;;;;;4.70;4.25;;;;;;;9.83;73.65;99622.16;1782268;77;21166;-59
2021/04/18 11:36:20;;;;;;;3.55;3.25;;;;;;;9.88;73.66;99621.93;1784135;77;22757;-59
2021/04/18 11:38:48;;;;;;;3.67;3.20;;;;;;;9.93;73.61;99625.30;1784264;77;22069;-59
2021/04/18 11:41:17;;;;;;;3.40;3.20;;;;;;;9.96;73.69;99623.78;1781447;77;21610;-59
2021/04/18 11:43:46;;;;;;;5.17;3.80;;;;;;;10.01;73.70;99626.27;1782536;77;21276;-59
2021/04/18 11:46:13;;;;;;;4.20;3.50;;;;;;;10.07;73.87;99627.31;1781060;77;21544;-57
2021/04/18 11:48:41;;;;;;;4.22;2.30;;;;;;;10.16;73.87;99621.02;1781672;77;21179;-60
2021/04/18 11:51:10;;;;;;;3.60;2.62;;;;;;;10.26;73.50;99622.83;1780783;77;21175;-59
2021/04/18 11:53:37;;;;;;;3.37;3.08;;;;;;;10.32;73.47;99615.78;1784547;77;21179;-59
2021/04/18 11:56:06;;;;;;;4.97;4.42;;;;;;;10.41;73.34;99617.15;1770881;77;22003;-59